sensor_id;sensor_type;location;lat;lon;timestamp;temperature;humidity
20829;DHT22;10575;50.124;8.582;2023-04-15T00:00:27;8.00;99.90
20829;DHT22;10575;50.124;8.582;2023-04-15T00:02:53;7.80;99.90
20829;DHT22;10575;50.124;8.582;2023-04-15T00:05:19;7.70;99.90
20829;DHT22;10575;50.124;8.582;2023-04-15T00:07:45;7.70;99.90
20829;DHT22;10575;50.124;8.582;2023-04-15T00:10:12;7.60;99.90
20829;DHT22;10575;50.124;8.582;2023-04-15T00:12:37;7.60;99.90
20829;DHT22;10575;50.124;8.582;2023-04-15T00:15:03;7.60;99.90
20829;DHT22;10575;50.124;8.582;2023-04-15T00:17:29;7.60;99.90
20829;DHT22;10575;50.124;8.582;2023-04-15T00:19:55;7.50;99.90
20829;DHT22;10575;50.124;8.582;2023-04-15T00:22:20;7.40;99.90
20829;DHT22;10575;50.124;8.582;2023-04-15T00:24:47;7.30;99.90
20829;DHT22;10575;50.124;8.582;2023-04-15T00:27:12;7.30;99.90
20829;DHT22;10575;50.124;8.582;2023-04-15T00:29:38;7.30;99.90
20829;DHT22;10575;50.124;8.582;2023-04-15T00:32:03;7.20;99.90
20829;DHT22;10575;50.124;8.582;2023-04-15T00:34:29;7.10;99.90
20829;DHT22;10575;50.124;8.582;2023-04-15T00:36:55;7.10;99.90
20829;DHT22;10575;50.124;8.582;2023-04-15T00:39:21;7.10;99.90
20829;DHT22;10575;50.124;8.582;2023-04-15T00:41:47;7.00;99.90
20829;DHT22;10575;50.124;8.582;2023-04-15T00:44:13;7.00;99.90
20829;DHT22;10575;50.124;8.582;2023-04-15T00:46:39;7.00;99.90
20829;DHT22;10575;50.124;8.582;2023-04-15T00:49:06;7.00;99.90
20829;DHT22;10575;50.124;8.582;2023-04-15T00:51:33;7.00;99.90
20829;DHT22;10575;50.124;8.582;2023-04-15T00:54:04;6.90;99.90
20829;DHT22;10575;50.124;8.582;2023-04-15T00:56:30;6.70;99.90
20829;DHT22;10575;50.124;8.582;2023-04-15T00:58:58;6.70;99.90
20829;DHT22;10575;50.124;8.582;2023-04-15T01:01:25;6.70;99.90
20829;DHT22;10575;50.124;8.582;2023-04-15T01:03:51;6.60;99.90
20829;DHT22;10575;50.124;8.582;2023-04-15T01:06:17;6.60;99.90
20829;DHT22;10575;50.124;8.582;2023-04-15T01:08:43;6.70;99.90
20829;DHT22;10575;50.124;8.582;2023-04-15T01:11:09;6.60;99.90
20829;DHT22;10575;50.124;8.582;2023-04-15T01:13:36;6.60;99.90
20829;DHT22;10575;50.124;8.582;2023-04-15T01:16:02;6.70;99.90
20829;DHT22;10575;50.124;8.582;2023-04-15T01:18:29;6.90;99.90
20829;DHT22;10575;50.124;8.582;2023-04-15T01:20:55;7.10;99.90
20829;DHT22;10575;50.124;8.582;2023-04-15T01:23:21;7.10;99.90
20829;DHT22;10575;50.124;8.582;2023-04-15T01:25:52;7.20;99.90
20829;DHT22;10575;50.124;8.582;2023-04-15T01:28:17;7.20;99.90
20829;DHT22;10575;50.124;8.582;2023-04-15T01:30:43;7.30;99.90
20829;DHT22;10575;50.124;8.582;2023-04-15T01:33:09;7.40;99.90
20829;DHT22;10575;50.124;8.582;2023-04-15T01:35:34;7.40;99.90
20829;DHT22;10575;50.124;8.582;2023-04-15T01:38:07;7.40;99.90
20829;DHT22;10575;50.124;8.582;2023-04-15T01:40:34;7.30;99.90
20829;DHT22;10575;50.124;8.582;2023-04-15T01:43:00;7.20;99.90
20829;DHT22;10575;50.124;8.582;2023-04-15T01:45:26;7.10;99.90
20829;DHT22;10575;50.124;8.582;2023-04-15T01:47:52;7.00;99.90
20829;DHT22;10575;50.124;8.582;2023-04-15T01:50:18;7.00;99.90
20829;DHT22;10575;50.124;8.582;2023-04-15T01:52:44;7.10;99.90
20829;DHT22;10575;50.124;8.582;2023-04-15T01:55:11;7.00;99.90
20829;DHT22;10575;50.124;8.582;2023-04-15T01:57:37;7.10;99.90
20829;DHT22;10575;50.124;8.582;2023-04-15T02:00:03;7.10;99.90
20829;DHT22;10575;50.124;8.582;2023-04-15T02:02:29;7.20;99.90
20829;DHT22;10575;50.124;8.582;2023-04-15T02:04:55;7.30;99.90
20829;DHT22;10575;50.124;8.582;2023-04-15T02:07:20;7.40;99.90
20829;DHT22;10575;50.124;8.582;2023-04-15T02:09:46;7.50;99.90
20829;DHT22;10575;50.124;8.582;2023-04-15T02:12:11;7.40;99.90
20829;DHT22;10575;50.124;8.582;2023-04-15T02:14:37;7.50;99.90
20829;DHT22;10575;50.124;8.582;2023-04-15T02:17:03;7.60;99.90
20829;DHT22;10575;50.124;8.582;2023-04-15T02:19:33;7.70;99.90
20829;DHT22;10575;50.124;8.582;2023-04-15T02:21:58;7.70;99.90
20829;DHT22;10575;50.124;8.582;2023-04-15T02:24:26;7.60;99.90
20829;DHT22;10575;50.124;8.582;2023-04-15T02:26:51;7.60;99.90
20829;DHT22;10575;50.124;8.582;2023-04-15T02:29:17;7.50;99.90
20829;DHT22;10575;50.124;8.582;2023-04-15T02:31:42;7.50;99.90
20829;DHT22;10575;50.124;8.582;2023-04-15T02:34:09;7.20;99.90
20829;DHT22;10575;50.124;8.582;2023-04-15T02:36:34;7.00;99.90
20829;DHT22;10575;50.124;8.582;2023-04-15T02:39:00;6.90;99.90
20829;DHT22;10575;50.124;8.582;2023-04-15T02:41:28;6.70;99.90
20829;DHT22;10575;50.124;8.582;2023-04-15T02:43:54;6.80;99.90
20829;DHT22;10575;50.124;8.582;2023-04-15T02:46:20;6.70;99.90
20829;DHT22;10575;50.124;8.582;2023-04-15T02:48:47;6.60;99.90
20829;DHT22;10575;50.124;8.582;2023-04-15T02:51:22;6.80;99.90
20829;DHT22;10575;50.124;8.582;2023-04-15T02:53:48;6.90;99.90
20829;DHT22;10575;50.124;8.582;2023-04-15T02:56:14;6.90;99.90
20829;DHT22;10575;50.124;8.582;2023-04-15T02:58:40;6.90;99.90
20829;DHT22;10575;50.124;8.582;2023-04-15T03:01:06;7.00;99.90
20829;DHT22;10575;50.124;8.582;2023-04-15T03:03:33;7.00;99.90
20829;DHT22;10575;50.124;8.582;2023-04-15T03:05:58;7.00;99.90
20829;DHT22;10575;50.124;8.582;2023-04-15T03:08:24;7.10;99.90
20829;DHT22;10575;50.124;8.582;2023-04-15T03:10:50;7.10;99.90
20829;DHT22;10575;50.124;8.582;2023-04-15T03:13:17;7.00;99.90
20829;DHT22;10575;50.124;8.582;2023-04-15T03:15:45;7.10;99.90
20829;DHT22;10575;50.124;8.582;2023-04-15T03:18:11;7.00;99.90
20829;DHT22;10575;50.124;8.582;2023-04-15T03:20:36;6.90;99.90
20829;DHT22;10575;50.124;8.582;2023-04-15T03:23:02;6.80;99.90
20829;DHT22;10575;50.124;8.582;2023-04-15T03:25:27;6.70;99.90
20829;DHT22;10575;50.124;8.582;2023-04-15T03:27:53;6.80;99.90
20829;DHT22;10575;50.124;8.582;2023-04-15T03:30:18;6.70;99.90
20829;DHT22;10575;50.124;8.582;2023-04-15T03:32:44;6.70;99.90
20829;DHT22;10575;50.124;8.582;2023-04-15T03:35:09;6.70;99.90
20829;DHT22;10575;50.124;8.582;2023-04-15T03:37:35;6.70;99.90
20829;DHT22;10575;50.124;8.582;2023-04-15T03:40:01;6.80;99.90
20829;DHT22;10575;50.124;8.582;2023-04-15T03:42:26;6.80;99.90
20829;DHT22;10575;50.124;8.582;2023-04-15T03:44:52;6.80;99.90
20829;DHT22;10575;50.124;8.582;2023-04-15T03:47:17;6.80;99.90
20829;DHT22;10575;50.124;8.582;2023-04-15T03:49:43;6.80;99.90
20829;DHT22;10575;50.124;8.582;2023-04-15T03:52:08;6.70;99.90
20829;DHT22;10575;50.124;8.582;2023-04-15T03:54:34;6.60;99.90
20829;DHT22;10575;50.124;8.582;2023-04-15T03:56:59;6.50;99.90
20829;DHT22;10575;50.124;8.582;2023-04-15T03:59:25;6.60;99.90
20829;DHT22;10575;50.124;8.582;2023-04-15T04:01:51;6.60;99.90
20829;DHT22;10575;50.124;8.582;2023-04-15T04:04:16;6.50;99.90
20829;DHT22;10575;50.124;8.582;2023-04-15T04:06:42;6.50;99.90
20829;DHT22;10575;50.124;8.582;2023-04-15T04:09:08;6.40;99.90
20829;DHT22;10575;50.124;8.582;2023-04-15T04:11:33;6.30;99.90
20829;DHT22;10575;50.124;8.582;2023-04-15T04:13:59;6.30;99.90
20829;DHT22;10575;50.124;8.582;2023-04-15T04:16:24;6.30;99.90
20829;DHT22;10575;50.124;8.582;2023-04-15T04:18:50;6.40;99.90
20829;DHT22;10575;50.124;8.582;2023-04-15T04:21:16;6.40;99.90
20829;DHT22;10575;50.124;8.582;2023-04-15T04:23:41;6.40;99.90
20829;DHT22;10575;50.124;8.582;2023-04-15T04:26:07;6.50;99.90
20829;DHT22;10575;50.124;8.582;2023-04-15T04:28:32;6.50;99.90
20829;DHT22;10575;50.124;8.582;2023-04-15T04:30:59;6.50;99.90
20829;DHT22;10575;50.124;8.582;2023-04-15T04:33:25;6.60;99.90
20829;DHT22;10575;50.124;8.582;2023-04-15T04:35:50;6.60;99.90
20829;DHT22;10575;50.124;8.582;2023-04-15T04:38:16;6.60;99.90
20829;DHT22;10575;50.124;8.582;2023-04-15T04:40:41;6.60;99.90
20829;DHT22;10575;50.124;8.582;2023-04-15T04:43:07;6.60;99.90
20829;DHT22;10575;50.124;8.582;2023-04-15T04:45:33;6.60;99.90
20829;DHT22;10575;50.124;8.582;2023-04-15T04:47:59;6.60;99.90
20829;DHT22;10575;50.124;8.582;2023-04-15T04:50:24;6.50;99.90
20829;DHT22;10575;50.124;8.582;2023-04-15T04:52:50;6.50;99.90
20829;DHT22;10575;50.124;8.582;2023-04-15T04:55:16;6.50;99.90
20829;DHT22;10575;50.124;8.582;2023-04-15T04:57:41;6.60;99.90
20829;DHT22;10575;50.124;8.582;2023-04-15T05:00:07;6.60;99.90
20829;DHT22;10575;50.124;8.582;2023-04-15T05:02:33;6.70;99.90
20829;DHT22;10575;50.124;8.582;2023-04-15T05:04:59;6.60;99.90
20829;DHT22;10575;50.124;8.582;2023-04-15T05:07:25;6.70;99.90
20829;DHT22;10575;50.124;8.582;2023-04-15T05:09:50;6.80;99.90
20829;DHT22;10575;50.124;8.582;2023-04-15T05:12:16;6.90;99.90
20829;DHT22;10575;50.124;8.582;2023-04-15T05:14:42;7.00;99.90
20829;DHT22;10575;50.124;8.582;2023-04-15T05:17:08;7.10;99.90
20829;DHT22;10575;50.124;8.582;2023-04-15T05:19:34;7.20;99.90
20829;DHT22;10575;50.124;8.582;2023-04-15T05:21:59;7.20;99.90
20829;DHT22;10575;50.124;8.582;2023-04-15T05:24:25;7.20;99.90
20829;DHT22;10575;50.124;8.582;2023-04-15T05:26:50;7.30;99.90
20829;DHT22;10575;50.124;8.582;2023-04-15T05:29:16;7.40;99.90
20829;DHT22;10575;50.124;8.582;2023-04-15T05:31:42;7.50;99.90
20829;DHT22;10575;50.124;8.582;2023-04-15T05:34:07;7.70;99.90
20829;DHT22;10575;50.124;8.582;2023-04-15T05:36:33;7.80;99.90
20829;DHT22;10575;50.124;8.582;2023-04-15T05:38:58;7.80;99.90
20829;DHT22;10575;50.124;8.582;2023-04-15T05:41:24;7.80;99.90
20829;DHT22;10575;50.124;8.582;2023-04-15T05:43:50;7.80;99.90
20829;DHT22;10575;50.124;8.582;2023-04-15T05:46:16;7.60;99.90
20829;DHT22;10575;50.124;8.582;2023-04-15T05:48:41;7.40;99.90
20829;DHT22;10575;50.124;8.582;2023-04-15T05:51:07;7.20;99.90
20829;DHT22;10575;50.124;8.582;2023-04-15T05:53:32;7.10;99.90
20829;DHT22;10575;50.124;8.582;2023-04-15T05:55:58;7.10;99.90
20829;DHT22;10575;50.124;8.582;2023-04-15T05:58:23;7.00;99.90
20829;DHT22;10575;50.124;8.582;2023-04-15T06:00:49;7.10;99.90
20829;DHT22;10575;50.124;8.582;2023-04-15T06:03:15;7.20;99.90
20829;DHT22;10575;50.124;8.582;2023-04-15T06:05:41;7.20;99.90
20829;DHT22;10575;50.124;8.582;2023-04-15T06:08:06;7.40;99.90
20829;DHT22;10575;50.124;8.582;2023-04-15T06:10:34;7.60;99.90
20829;DHT22;10575;50.124;8.582;2023-04-15T06:13:01;7.70;99.90
20829;DHT22;10575;50.124;8.582;2023-04-15T06:15:28;7.80;99.90
20829;DHT22;10575;50.124;8.582;2023-04-15T06:17:53;7.90;99.90
20829;DHT22;10575;50.124;8.582;2023-04-15T06:20:19;8.10;99.90
20829;DHT22;10575;50.124;8.582;2023-04-15T06:22:45;8.40;99.90
20829;DHT22;10575;50.124;8.582;2023-04-15T06:25:10;8.40;99.90
20829;DHT22;10575;50.124;8.582;2023-04-15T06:27:36;8.60;99.90
20829;DHT22;10575;50.124;8.582;2023-04-15T06:30:02;8.80;99.90
20829;DHT22;10575;50.124;8.582;2023-04-15T06:32:28;9.00;99.90
20829;DHT22;10575;50.124;8.582;2023-04-15T06:34:54;9.20;99.90
20829;DHT22;10575;50.124;8.582;2023-04-15T06:37:19;9.40;99.90
20829;DHT22;10575;50.124;8.582;2023-04-15T06:39:45;9.70;99.90
20829;DHT22;10575;50.124;8.582;2023-04-15T06:42:10;9.80;99.90
20829;DHT22;10575;50.124;8.582;2023-04-15T06:44:36;10.60;99.90
20829;DHT22;10575;50.124;8.582;2023-04-15T06:47:02;11.60;99.90
20829;DHT22;10575;50.124;8.582;2023-04-15T06:49:28;12.30;99.90
20829;DHT22;10575;50.124;8.582;2023-04-15T06:51:53;12.30;99.90
20829;DHT22;10575;50.124;8.582;2023-04-15T06:54:19;12.20;99.90
20829;DHT22;10575;50.124;8.582;2023-04-15T06:56:44;12.30;99.90
20829;DHT22;10575;50.124;8.582;2023-04-15T06:59:10;12.30;99.90
20829;DHT22;10575;50.124;8.582;2023-04-15T07:01:36;13.00;99.90
20829;DHT22;10575;50.124;8.582;2023-04-15T07:04:01;13.20;99.90
20829;DHT22;10575;50.124;8.582;2023-04-15T07:06:27;13.40;99.90
20829;DHT22;10575;50.124;8.582;2023-04-15T07:08:52;13.50;99.90
20829;DHT22;10575;50.124;8.582;2023-04-15T07:11:19;14.10;99.90
20829;DHT22;10575;50.124;8.582;2023-04-15T07:13:45;14.30;99.90
20829;DHT22;10575;50.124;8.582;2023-04-15T07:16:11;15.40;99.90
20829;DHT22;10575;50.124;8.582;2023-04-15T07:18:36;15.90;99.90
20829;DHT22;10575;50.124;8.582;2023-04-15T07:21:02;16.20;99.90
20829;DHT22;10575;50.124;8.582;2023-04-15T07:23:27;16.40;99.90
20829;DHT22;10575;50.124;8.582;2023-04-15T07:25:53;16.50;99.90
20829;DHT22;10575;50.124;8.582;2023-04-15T07:28:19;16.90;99.90
20829;DHT22;10575;50.124;8.582;2023-04-15T07:30:44;17.00;99.90
20829;DHT22;10575;50.124;8.582;2023-04-15T07:33:10;17.50;99.90
20829;DHT22;10575;50.124;8.582;2023-04-15T07:35:36;18.10;99.90
20829;DHT22;10575;50.124;8.582;2023-04-15T07:38:02;18.90;99.90
20829;DHT22;10575;50.124;8.582;2023-04-15T07:40:27;19.70;99.90
20829;DHT22;10575;50.124;8.582;2023-04-15T07:42:54;20.10;99.90
20829;DHT22;10575;50.124;8.582;2023-04-15T07:45:20;19.90;99.90
20829;DHT22;10575;50.124;8.582;2023-04-15T07:47:46;19.50;99.90
20829;DHT22;10575;50.124;8.582;2023-04-15T07:50:11;18.80;99.90
20829;DHT22;10575;50.124;8.582;2023-04-15T07:52:37;17.90;99.90
20829;DHT22;10575;50.124;8.582;2023-04-15T07:55:06;17.40;99.90
20829;DHT22;10575;50.124;8.582;2023-04-15T07:57:35;16.60;99.90
20829;DHT22;10575;50.124;8.582;2023-04-15T08:00:02;16.40;99.90
20829;DHT22;10575;50.124;8.582;2023-04-15T08:02:30;15.80;99.90
20829;DHT22;10575;50.124;8.582;2023-04-15T08:04:56;15.30;99.90
20829;DHT22;10575;50.124;8.582;2023-04-15T08:07:26;15.10;99.90
20829;DHT22;10575;50.124;8.582;2023-04-15T08:09:56;14.60;99.90
20829;DHT22;10575;50.124;8.582;2023-04-15T08:12:22;14.50;99.90
20829;DHT22;10575;50.124;8.582;2023-04-15T08:14:49;14.50;99.90
20829;DHT22;10575;50.124;8.582;2023-04-15T08:17:15;14.70;99.90
20829;DHT22;10575;50.124;8.582;2023-04-15T08:19:40;14.70;99.90
20829;DHT22;10575;50.124;8.582;2023-04-15T08:22:06;14.10;99.90
20829;DHT22;10575;50.124;8.582;2023-04-15T08:24:32;13.30;99.90
20829;DHT22;10575;50.124;8.582;2023-04-15T08:26:58;13.00;99.90
20829;DHT22;10575;50.124;8.582;2023-04-15T08:29:24;13.00;99.90
20829;DHT22;10575;50.124;8.582;2023-04-15T08:31:49;12.60;99.90
20829;DHT22;10575;50.124;8.582;2023-04-15T08:34:15;12.40;99.90
20829;DHT22;10575;50.124;8.582;2023-04-15T08:36:41;12.30;99.90
20829;DHT22;10575;50.124;8.582;2023-04-15T08:39:07;12.50;99.90
20829;DHT22;10575;50.124;8.582;2023-04-15T08:41:55;12.90;99.90
20829;DHT22;10575;50.124;8.582;2023-04-15T08:44:23;13.20;99.90
20829;DHT22;10575;50.124;8.582;2023-04-15T08:46:51;13.40;99.90
20829;DHT22;10575;50.124;8.582;2023-04-15T08:49:18;13.60;99.90
20829;DHT22;10575;50.124;8.582;2023-04-15T08:51:45;13.90;99.90
20829;DHT22;10575;50.124;8.582;2023-04-15T08:54:11;14.10;99.90
20829;DHT22;10575;50.124;8.582;2023-04-15T08:56:38;14.30;99.90
20829;DHT22;10575;50.124;8.582;2023-04-15T08:59:03;14.50;99.90
20829;DHT22;10575;50.124;8.582;2023-04-15T09:01:31;14.70;99.90
20829;DHT22;10575;50.124;8.582;2023-04-15T09:03:57;14.70;99.90
20829;DHT22;10575;50.124;8.582;2023-04-15T09:06:23;14.50;99.90
20829;DHT22;10575;50.124;8.582;2023-04-15T09:08:50;14.60;99.90
20829;DHT22;10575;50.124;8.582;2023-04-15T09:11:16;14.10;99.90
20829;DHT22;10575;50.124;8.582;2023-04-15T09:13:44;13.80;99.90
20829;DHT22;10575;50.124;8.582;2023-04-15T09:16:12;13.80;99.90
20829;DHT22;10575;50.124;8.582;2023-04-15T09:18:38;13.80;99.90
20829;DHT22;10575;50.124;8.582;2023-04-15T09:21:11;14.00;99.90
20829;DHT22;10575;50.124;8.582;2023-04-15T09:23:40;13.90;99.90
20829;DHT22;10575;50.124;8.582;2023-04-15T09:26:06;14.00;99.90
20829;DHT22;10575;50.124;8.582;2023-04-15T09:28:32;14.50;99.90
20829;DHT22;10575;50.124;8.582;2023-04-15T09:31:00;14.60;99.90
20829;DHT22;10575;50.124;8.582;2023-04-15T09:33:28;14.80;99.90
20829;DHT22;10575;50.124;8.582;2023-04-15T09:36:00;15.10;99.90
20829;DHT22;10575;50.124;8.582;2023-04-15T09:38:26;15.40;99.90
20829;DHT22;10575;50.124;8.582;2023-04-15T09:40:52;15.10;99.90
20829;DHT22;10575;50.124;8.582;2023-04-15T09:43:18;15.00;99.90
20829;DHT22;10575;50.124;8.582;2023-04-15T09:45:50;15.10;99.90
20829;DHT22;10575;50.124;8.582;2023-04-15T09:48:25;15.00;99.90
20829;DHT22;10575;50.124;8.582;2023-04-15T09:50:51;14.70;99.90
20829;DHT22;10575;50.124;8.582;2023-04-15T09:53:22;14.70;99.90
20829;DHT22;10575;50.124;8.582;2023-04-15T09:55:54;14.50;99.90
20829;DHT22;10575;50.124;8.582;2023-04-15T09:58:21;14.50;99.90
20829;DHT22;10575;50.124;8.582;2023-04-15T10:00:49;14.50;99.90
20829;DHT22;10575;50.124;8.582;2023-04-15T10:03:19;14.20;99.90
20829;DHT22;10575;50.124;8.582;2023-04-15T10:05:50;14.00;99.90
20829;DHT22;10575;50.124;8.582;2023-04-15T10:08:18;13.90;99.90
20829;DHT22;10575;50.124;8.582;2023-04-15T10:10:45;13.90;99.90
20829;DHT22;10575;50.124;8.582;2023-04-15T10:13:18;14.00;99.90
20829;DHT22;10575;50.124;8.582;2023-04-15T10:15:44;13.90;99.90
20829;DHT22;10575;50.124;8.582;2023-04-15T10:18:15;13.60;99.90
20829;DHT22;10575;50.124;8.582;2023-04-15T10:20:42;13.40;99.90
20829;DHT22;10575;50.124;8.582;2023-04-15T10:23:08;13.40;99.90
20829;DHT22;10575;50.124;8.582;2023-04-15T10:25:34;13.50;99.90
20829;DHT22;10575;50.124;8.582;2023-04-15T10:28:01;13.60;99.90
20829;DHT22;10575;50.124;8.582;2023-04-15T10:30:27;13.60;99.90
20829;DHT22;10575;50.124;8.582;2023-04-15T10:32:55;13.60;99.90
20829;DHT22;10575;50.124;8.582;2023-04-15T10:35:21;13.60;99.90
20829;DHT22;10575;50.124;8.582;2023-04-15T10:37:47;13.80;99.90
20829;DHT22;10575;50.124;8.582;2023-04-15T10:42:53;14.30;99.90
20829;DHT22;10575;50.124;8.582;2023-04-15T10:45:19;14.40;99.90
20829;DHT22;10575;50.124;8.582;2023-04-15T10:47:45;14.70;99.90
20829;DHT22;10575;50.124;8.582;2023-04-15T10:50:10;14.60;99.90
20829;DHT22;10575;50.124;8.582;2023-04-15T10:52:39;14.80;99.90
20829;DHT22;10575;50.124;8.582;2023-04-15T10:55:14;14.60;99.90
20829;DHT22;10575;50.124;8.582;2023-04-15T10:57:41;14.80;99.90
20829;DHT22;10575;50.124;8.582;2023-04-15T11:02:46;14.60;99.90
20829;DHT22;10575;50.124;8.582;2023-04-15T11:05:13;14.50;99.90
20829;DHT22;10575;50.124;8.582;2023-04-15T11:07:47;14.40;99.90
20829;DHT22;10575;50.124;8.582;2023-04-15T11:12:43;14.10;99.90
20829;DHT22;10575;50.124;8.582;2023-04-15T11:15:28;14.20;99.90
20829;DHT22;10575;50.124;8.582;2023-04-15T11:18:07;14.50;99.90
20829;DHT22;10575;50.124;8.582;2023-04-15T11:20:33;14.50;99.90
20829;DHT22;10575;50.124;8.582;2023-04-15T11:22:58;14.50;99.90
20829;DHT22;10575;50.124;8.582;2023-04-15T11:25:25;14.50;99.90
20829;DHT22;10575;50.124;8.582;2023-04-15T11:27:55;14.70;99.90
20829;DHT22;10575;50.124;8.582;2023-04-15T11:30:22;14.80;99.90
20829;DHT22;10575;50.124;8.582;2023-04-15T11:32:52;14.90;99.90
20829;DHT22;10575;50.124;8.582;2023-04-15T11:35:18;14.90;99.90
20829;DHT22;10575;50.124;8.582;2023-04-15T11:37:44;14.80;99.90
20829;DHT22;10575;50.124;8.582;2023-04-15T11:40:11;14.70;99.90
20829;DHT22;10575;50.124;8.582;2023-04-15T11:42:37;14.70;99.90
20829;DHT22;10575;50.124;8.582;2023-04-15T11:45:10;14.60;99.90
20829;DHT22;10575;50.124;8.582;2023-04-15T11:47:37;14.20;99.90
20829;DHT22;10575;50.124;8.582;2023-04-15T11:50:17;13.80;99.90
20829;DHT22;10575;50.124;8.582;2023-04-15T11:52:56;13.90;99.90
20829;DHT22;10575;50.124;8.582;2023-04-15T11:55:23;13.60;99.90
20829;DHT22;10575;50.124;8.582;2023-04-15T11:58:22;13.40;99.90
20829;DHT22;10575;50.124;8.582;2023-04-15T12:00:51;13.00;99.90
20829;DHT22;10575;50.124;8.582;2023-04-15T12:03:29;13.20;99.90
20829;DHT22;10575;50.124;8.582;2023-04-15T12:06:13;13.00;99.90
20829;DHT22;10575;50.124;8.582;2023-04-15T12:08:54;13.00;99.90
20829;DHT22;10575;50.124;8.582;2023-04-15T12:16:29;12.60;99.90
20829;DHT22;10575;50.124;8.582;2023-04-15T12:18:57;12.50;99.90
20829;DHT22;10575;50.124;8.582;2023-04-15T12:21:25;12.80;99.90
20829;DHT22;10575;50.124;8.582;2023-04-15T12:23:54;12.70;99.90
20829;DHT22;10575;50.124;8.582;2023-04-15T12:26:32;12.60;99.90
20829;DHT22;10575;50.124;8.582;2023-04-15T12:29:06;12.70;99.90
20829;DHT22;10575;50.124;8.582;2023-04-15T12:31:36;12.60;99.90
20829;DHT22;10575;50.124;8.582;2023-04-15T12:34:03;12.70;99.90
20829;DHT22;10575;50.124;8.582;2023-04-15T12:36:31;12.50;99.90
20829;DHT22;10575;50.124;8.582;2023-04-15T12:39:02;12.20;99.90
20829;DHT22;10575;50.124;8.582;2023-04-15T12:41:28;12.20;99.90
20829;DHT22;10575;50.124;8.582;2023-04-15T12:43:54;12.20;99.90
20829;DHT22;10575;50.124;8.582;2023-04-15T12:46:19;12.10;99.90
20829;DHT22;10575;50.124;8.582;2023-04-15T12:48:46;12.20;99.90
20829;DHT22;10575;50.124;8.582;2023-04-15T12:51:12;12.20;99.90
20829;DHT22;10575;50.124;8.582;2023-04-15T12:53:37;12.20;99.90
20829;DHT22;10575;50.124;8.582;2023-04-15T12:56:03;12.10;99.90
20829;DHT22;10575;50.124;8.582;2023-04-15T12:58:29;12.00;99.90
20829;DHT22;10575;50.124;8.582;2023-04-15T13:00:54;11.80;99.90
20829;DHT22;10575;50.124;8.582;2023-04-15T13:03:20;11.80;99.90
20829;DHT22;10575;50.124;8.582;2023-04-15T13:05:45;11.80;99.90
20829;DHT22;10575;50.124;8.582;2023-04-15T13:08:11;11.80;99.90
20829;DHT22;10575;50.124;8.582;2023-04-15T13:10:36;11.90;99.90
20829;DHT22;10575;50.124;8.582;2023-04-15T13:13:02;12.00;99.90
20829;DHT22;10575;50.124;8.582;2023-04-15T13:15:28;12.00;99.90
20829;DHT22;10575;50.124;8.582;2023-04-15T13:17:54;12.00;99.90
20829;DHT22;10575;50.124;8.582;2023-04-15T13:20:19;12.00;99.90
20829;DHT22;10575;50.124;8.582;2023-04-15T13:22:45;11.80;99.90
20829;DHT22;10575;50.124;8.582;2023-04-15T13:25:11;11.60;99.90
20829;DHT22;10575;50.124;8.582;2023-04-15T13:27:36;11.70;99.90
20829;DHT22;10575;50.124;8.582;2023-04-15T13:30:03;11.80;99.90
20829;DHT22;10575;50.124;8.582;2023-04-15T13:32:28;11.70;99.90
20829;DHT22;10575;50.124;8.582;2023-04-15T13:34:54;11.50;99.90
20829;DHT22;10575;50.124;8.582;2023-04-15T13:37:25;11.70;99.90
20829;DHT22;10575;50.124;8.582;2023-04-15T13:39:51;11.80;99.90
20829;DHT22;10575;50.124;8.582;2023-04-15T13:42:16;11.80;99.90
20829;DHT22;10575;50.124;8.582;2023-04-15T13:44:42;11.80;99.90
20829;DHT22;10575;50.124;8.582;2023-04-15T13:47:07;12.00;99.90
20829;DHT22;10575;50.124;8.582;2023-04-15T13:49:33;11.70;99.90
20829;DHT22;10575;50.124;8.582;2023-04-15T13:51:58;11.50;99.90
20829;DHT22;10575;50.124;8.582;2023-04-15T13:54:24;11.50;99.90
20829;DHT22;10575;50.124;8.582;2023-04-15T13:56:49;11.50;99.90
20829;DHT22;10575;50.124;8.582;2023-04-15T13:59:15;11.60;99.90
20829;DHT22;10575;50.124;8.582;2023-04-15T14:01:40;11.70;99.90
20829;DHT22;10575;50.124;8.582;2023-04-15T14:04:06;11.70;99.90
20829;DHT22;10575;50.124;8.582;2023-04-15T14:06:31;11.80;99.90
20829;DHT22;10575;50.124;8.582;2023-04-15T14:08:57;11.90;99.90
20829;DHT22;10575;50.124;8.582;2023-04-15T14:11:22;12.10;99.90
20829;DHT22;10575;50.124;8.582;2023-04-15T14:13:48;12.10;99.90
20829;DHT22;10575;50.124;8.582;2023-04-15T14:16:13;12.20;99.90
20829;DHT22;10575;50.124;8.582;2023-04-15T14:18:39;12.30;99.90
20829;DHT22;10575;50.124;8.582;2023-04-15T14:21:05;12.20;99.90
20829;DHT22;10575;50.124;8.582;2023-04-15T14:23:31;12.40;99.90
20829;DHT22;10575;50.124;8.582;2023-04-15T14:25:57;12.30;99.90
20829;DHT22;10575;50.124;8.582;2023-04-15T14:28:23;12.10;99.90
20829;DHT22;10575;50.124;8.582;2023-04-15T14:30:49;11.90;99.90
20829;DHT22;10575;50.124;8.582;2023-04-15T14:33:14;11.90;99.90
20829;DHT22;10575;50.124;8.582;2023-04-15T14:35:40;11.70;99.90
20829;DHT22;10575;50.124;8.582;2023-04-15T14:38:06;11.60;99.90
20829;DHT22;10575;50.124;8.582;2023-04-15T14:40:34;11.60;99.90
20829;DHT22;10575;50.124;8.582;2023-04-15T14:43:00;11.60;99.90
20829;DHT22;10575;50.124;8.582;2023-04-15T14:45:25;11.60;99.90
20829;DHT22;10575;50.124;8.582;2023-04-15T14:47:51;11.50;99.90
20829;DHT22;10575;50.124;8.582;2023-04-15T14:50:17;11.40;99.90
20829;DHT22;10575;50.124;8.582;2023-04-15T14:52:43;11.40;99.90
20829;DHT22;10575;50.124;8.582;2023-04-15T14:55:10;11.40;99.90
20829;DHT22;10575;50.124;8.582;2023-04-15T14:57:36;11.30;99.90
20829;DHT22;10575;50.124;8.582;2023-04-15T15:00:03;11.20;99.90
20829;DHT22;10575;50.124;8.582;2023-04-15T15:02:29;11.20;99.90
20829;DHT22;10575;50.124;8.582;2023-04-15T15:04:56;11.20;99.90
20829;DHT22;10575;50.124;8.582;2023-04-15T15:07:22;11.30;99.90
20829;DHT22;10575;50.124;8.582;2023-04-15T15:09:48;11.40;99.90
20829;DHT22;10575;50.124;8.582;2023-04-15T15:12:13;11.30;99.90
20829;DHT22;10575;50.124;8.582;2023-04-15T15:14:39;11.20;99.90
20829;DHT22;10575;50.124;8.582;2023-04-15T15:17:04;11.10;99.90
20829;DHT22;10575;50.124;8.582;2023-04-15T15:19:30;11.00;99.90
20829;DHT22;10575;50.124;8.582;2023-04-15T15:21:55;11.10;99.90
20829;DHT22;10575;50.124;8.582;2023-04-15T15:24:21;11.20;99.90
20829;DHT22;10575;50.124;8.582;2023-04-15T15:26:47;11.40;99.90
20829;DHT22;10575;50.124;8.582;2023-04-15T15:29:12;11.40;99.90
20829;DHT22;10575;50.124;8.582;2023-04-15T15:31:38;11.40;99.90
20829;DHT22;10575;50.124;8.582;2023-04-15T15:34:03;11.10;99.90
20829;DHT22;10575;50.124;8.582;2023-04-15T15:36:29;11.00;99.90
20829;DHT22;10575;50.124;8.582;2023-04-15T15:38:56;11.00;99.90
20829;DHT22;10575;50.124;8.582;2023-04-15T15:41:22;10.90;99.90
20829;DHT22;10575;50.124;8.582;2023-04-15T15:43:47;10.80;99.90
20829;DHT22;10575;50.124;8.582;2023-04-15T15:46:13;10.90;99.90